createdAt,value
2022-08-03T00:01:20.364Z,23.90
2022-08-03T00:03:49.032Z,23.80
2022-08-03T00:06:17.766Z,23.70
2022-08-03T00:08:46.508Z,23.80
2022-08-03T00:11:15.032Z,23.60
2022-08-03T00:13:43.615Z,23.60
2022-08-03T00:16:13.372Z,23.70
2022-08-03T00:18:42.143Z,23.60
2022-08-03T00:21:10.772Z,23.70
2022-08-03T00:23:52.580Z,23.70
2022-08-03T00:26:09.852Z,23.60
2022-08-03T00:28:38.569Z,23.70
2022-08-03T00:31:07.685Z,23.60
2022-08-03T00:33:59.149Z,23.90
2022-08-03T00:36:08.385Z,23.60
2022-08-03T00:38:37.169Z,23.60
2022-08-03T00:41:05.799Z,23.60
2022-08-03T00:43:34.574Z,23.60
2022-08-03T00:46:03.993Z,23.50
2022-08-03T00:48:33.596Z,23.80
2022-08-03T00:51:03.196Z,23.60
2022-08-03T00:53:32.023Z,23.50
2022-08-03T00:56:00.843Z,23.50
2022-08-03T00:58:29.613Z,23.50
2022-08-03T01:00:59.023Z,23.40
2022-08-03T01:03:27.752Z,23.40
2022-08-03T01:06:20.870Z,23.30
2022-08-03T01:09:01.592Z,23.40
2022-08-03T01:12:01.259Z,23.40
2022-08-03T01:14:20.037Z,23.30
2022-08-03T01:16:51.906Z,23.30
2022-08-03T01:19:42.573Z,23.30
2022-08-03T01:22:26.210Z,23.20
2022-08-03T01:25:00.349Z,23.20
2022-08-03T01:27:32.019Z,23.20
2022-08-03T01:30:09.366Z,23.20
2022-08-03T01:33:02.733Z,23.10
2022-08-03T01:35:32.109Z,23.20
2022-08-03T01:38:08.226Z,23.10
2022-08-03T01:40:39.824Z,23.00
2022-08-03T01:43:11.642Z,22.90
2022-08-03T01:45:40.984Z,22.90
2022-08-03T01:50:39.690Z,22.80
2022-08-03T01:53:09.837Z,22.90
2022-08-03T01:55:39.894Z,22.90
2022-08-03T01:58:09.344Z,22.90
2022-08-03T02:00:39.447Z,22.80
2022-08-03T02:03:09.404Z,22.80
2022-08-03T02:05:40.616Z,22.70
2022-08-03T02:08:11.500Z,22.70
2022-08-03T02:10:50.857Z,22.70
2022-08-03T02:13:21.492Z,22.70
2022-08-03T02:15:53.525Z,22.70
2022-08-03T02:18:23.398Z,22.70
2022-08-03T02:20:53.113Z,22.60
2022-08-03T02:23:21.794Z,22.60
2022-08-03T02:25:53.446Z,22.50
2022-08-03T02:28:25.266Z,22.60
2022-08-03T02:30:55.657Z,22.60
2022-08-03T02:33:27.390Z,22.60
2022-08-03T02:35:58.033Z,22.70
2022-08-03T02:38:29.703Z,22.60
2022-08-03T02:41:00.928Z,22.60
2022-08-03T02:43:39.192Z,22.60
2022-08-03T02:46:01.954Z,22.60
2022-08-03T02:48:33.571Z,22.50
2022-08-03T02:51:04.687Z,22.50
2022-08-03T02:53:35.609Z,22.40
2022-08-03T02:56:06.479Z,22.40
2022-08-03T02:58:35.595Z,22.30
2022-08-03T03:01:08.567Z,22.30
2022-08-03T03:03:44.903Z,22.30
2022-08-03T03:06:10.061Z,22.30
2022-08-03T03:08:40.487Z,22.20
2022-08-03T03:11:11.224Z,22.20
2022-08-03T03:13:42.699Z,22.00
2022-08-03T03:16:13.499Z,22.20
2022-08-03T03:18:44.679Z,22.10
2022-08-03T03:21:15.753Z,22.20
2022-08-03T03:23:45.996Z,22.20
2022-08-03T03:26:16.603Z,22.20
2022-08-03T03:28:46.072Z,22.10
2022-08-03T03:31:14.807Z,22.20
2022-08-03T03:33:43.717Z,22.10
2022-08-03T03:36:12.293Z,22.10
2022-08-03T03:38:41.033Z,22.20
2022-08-03T03:41:10.968Z,22.10
2022-08-03T03:43:39.816Z,22.10
2022-08-03T03:46:08.753Z,22.20
2022-08-03T03:48:37.401Z,22.10
2022-08-03T03:51:06.727Z,22.10
2022-08-03T03:53:35.560Z,22.10
2022-08-03T03:56:04.308Z,22.00
2022-08-03T03:58:33.830Z,21.90
2022-08-03T04:01:02.550Z,21.90
2022-08-03T04:03:31.551Z,22.00
2022-08-03T04:06:18.017Z,21.80
2022-08-03T04:09:04.737Z,21.80
2022-08-03T04:11:54.223Z,21.90
2022-08-03T04:14:39.866Z,21.90
2022-08-03T04:17:10.395Z,21.90
2022-08-03T04:19:41.979Z,22.00
2022-08-03T04:22:13.563Z,21.80
2022-08-03T04:24:48.534Z,21.90
2022-08-03T04:27:20.045Z,22.00
2022-08-03T04:29:51.733Z,21.90
2022-08-03T04:32:20.982Z,21.90
2022-08-03T04:34:49.632Z,22.00
2022-08-03T04:37:21.280Z,21.90
2022-08-03T04:39:51.834Z,21.90
2022-08-03T04:42:23.374Z,22.10
2022-08-03T04:44:55.570Z,21.90
2022-08-03T04:47:24.255Z,21.90
2022-08-03T04:49:53.379Z,22.00
2022-08-03T04:52:22.110Z,22.00
2022-08-03T04:54:51.184Z,22.00
2022-08-03T04:57:22.717Z,22.40
2022-08-03T04:59:52.844Z,22.10
2022-08-03T05:02:22.853Z,22.20
2022-08-03T05:04:51.682Z,22.30
2022-08-03T05:07:24.815Z,22.40
2022-08-03T05:09:57.490Z,22.60
2022-08-03T05:12:20.764Z,22.70
2022-08-03T05:14:49.359Z,22.80
2022-08-03T05:17:19.508Z,22.80
2022-08-03T05:19:48.031Z,22.90
